Time;durP1;ratioP1;P1;durP2;ratioP2;P2;SDS_P1;SDS_P2;PMS_P1;PMS_P2;Temp;Humidity;BMP_temperature;BMP_pressure;BME280_temperature;BME280_humidity;BME280_pressure;Samples;Min_cycle;Max_cycle;Signal;HPM_P1;HPM_P2
2021/07/28 00:01:02;;;;;;;12.65;6.53;;;;;;;17.72;73.18;99424.78;4994080;28;20398;-63
2021/07/28 00:03:51;;;;;;;9.35;6.50;;;;;;;17.72;73.04;99419.56;4993442;28;20521;-63
2021/07/28 00:06:38;;;;;;;11.82;6.82;;;;;;;17.71;73.12;99417.81;4979385;28;20057;-63
2021/07/28 00:09:27;;;;;;;11.35;6.38;;;;;;;17.71;73.27;99415.22;4978968;28;20469;-63
2021/07/28 00:12:14;;;;;;;8.85;6.18;;;;;;;17.71;73.14;99422.19;4993725;28;20053;-63
2021/07/28 00:14:59;;;;;;;8.45;6.05;;;;;;;17.71;73.13;99409.97;4995358;28;20061;-63
2021/07/28 00:17:51;;;;;;;10.90;7.03;;;;;;;17.71;73.17;99411.72;4997427;28;20104;-63
2021/07/28 00:23:19;;;;;;;10.02;5.88;;;;;;;17.70;73.25;99402.13;4996890;28;20049;-63
2021/07/28 00:26:03;;;;;;;;;;;;;;;17.67;73.08;99397.81;4998002;28;20050;-63
2021/07/28 00:28:53;;;;;;;10.27;6.75;;;;;;;17.69;72.88;99403.03;4997465;28;19956;-63
2021/07/28 00:31:37;;;;;;;8.40;5.75;;;;;;;17.70;73.38;99395.16;4982747;28;20146;-64
2021/07/28 00:34:23;;;;;;;10.30;6.50;;;;;;;17.68;73.19;99402.19;4996811;28;20061;-63
2021/07/28 00:37:07;;;;;;;9.98;6.28;;;;;;;17.70;73.25;99400.38;4982256;28;20424;-63
2021/07/28 00:39:54;;;;;;;10.50;6.82;;;;;;;17.71;73.32;99401.22;4997042;28;20049;-63
2021/07/28 00:42:41;;;;;;;9.32;6.82;;;;;;;17.72;73.46;99387.22;4982880;28;20053;-63
2021/07/28 00:45:25;;;;;;;10.05;6.53;;;;;;;17.72;73.48;99382.00;4982238;28;20081;-63
2021/07/28 00:48:10;;;;;;;9.20;6.68;;;;;;;17.71;73.37;99378.53;4996768;28;20126;-63
2021/07/28 00:50:55;;;;;;;8.95;6.80;;;;;;;17.72;73.40;99372.38;4996948;28;20138;-63
2021/07/28 00:53:45;;;;;;;8.82;7.38;;;;;;;17.71;73.21;99375.03;4996397;28;20523;-62
2021/07/28 00:56:29;;;;;;;7.68;6.60;;;;;;;17.72;73.17;99371.50;4981691;28;20053;-62
2021/07/28 00:59:13;;;;;;;;;;;;;;;17.71;73.30;99381.16;4996487;28;20150;-62
2021/07/28 01:01:59;;;;;;;10.60;6.65;;;;;;;17.70;73.16;99382.03;4981011;28;19920;-61
2021/07/28 01:04:44;;;;;;;10.68;7.22;;;;;;;17.72;73.39;99376.75;4996399;28;20049;-62
2021/07/28 01:07:27;;;;;;;;;;;;;;;17.71;73.31;99380.28;4981898;28;20057;-64
2021/07/28 01:10:12;;;;;;;8.13;6.70;;;;;;;17.70;73.50;99374.19;4996324;28;19921;-63
2021/07/28 01:12:59;;;;;;;12.48;7.28;;;;;;;17.70;73.64;99360.19;4996018;28;20050;-63
2021/07/28 01:15:43;;;;;;;9.82;7.10;;;;;;;17.71;73.61;99368.03;4996448;28;20409;-63
2021/07/28 01:18:27;;;;;;;8.23;6.60;;;;;;;17.71;73.53;99370.66;4996456;28;20528;-63
2021/07/28 01:21:14;;;;;;;;;;;;;;;17.71;73.34;99372.41;4996643;28;20045;-63
2021/07/28 01:24:03;;;;;;;8.25;6.32;;;;;;;17.71;73.57;99369.78;4995969;28;20004;-62
2021/07/28 01:26:51;;;;;;;11.10;7.25;;;;;;;17.71;73.55;99370.66;4995683;28;20045;-63
2021/07/28 01:29:35;;;;;;;9.20;7.00;;;;;;;17.71;73.48;99377.66;4981532;28;20172;-63
2021/07/28 01:32:28;;;;;;;8.50;6.25;;;;;;;17.71;73.55;99373.28;4995786;28;20616;-63
2021/07/28 01:35:17;;;;;;;10.55;6.78;;;;;;;17.70;73.59;99368.94;4995785;28;20524;-63
2021/07/28 01:38:05;;;;;;;11.13;7.30;;;;;;;17.71;73.79;99362.81;4980777;28;20046;-63
2021/07/28 01:40:49;;;;;;;12.20;7.47;;;;;;;17.72;73.73;99358.41;4996102;28;20069;-63
2021/07/28 01:43:34;;;;;;;8.48;6.50;;;;;;;17.71;73.71;99357.56;4981258;28;20092;-63
2021/07/28 01:46:18;;;;;;;13.45;6.97;;;;;;;17.71;73.84;99359.31;4981397;28;20062;-63
2021/07/28 01:49:07;;;;;;;9.05;6.78;;;;;;;17.71;73.78;99348.81;4995496;28;20410;-63
2021/07/28 01:51:56;;;;;;;16.15;7.22;;;;;;;17.71;73.54;99351.44;4981415;28;20093;-63
2021/07/28 01:54:41;;;;;;;10.73;7.28;;;;;;;17.71;73.83;99349.69;4981428;28;20049;-63
2021/07/28 01:57:24;;;;;;;13.60;7.15;;;;;;;17.70;73.63;99353.22;4995015;28;20046;-62
2021/07/28 02:00:11;;;;;;;10.57;6.80;;;;;;;17.71;73.79;99357.56;4995562;28;20080;-62
2021/07/28 02:03:04;;;;;;;9.18;6.85;;;;;;;17.71;73.76;99354.06;4980395;28;20092;-62
2021/07/28 02:05:50;;;;;;;10.35;7.25;;;;;;;17.71;73.84;99357.56;4995555;28;20076;-62
2021/07/28 02:08:34;;;;;;;11.32;6.72;;;;;;;17.71;73.79;99356.69;4995624;28;20406;-64
2021/07/28 02:11:24;;;;;;;8.27;5.93;;;;;;;17.70;74.01;99354.97;4980715;28;20421;-63
2021/07/28 02:14:16;;;;;;;10.10;6.25;;;;;;;17.69;73.72;99351.50;4980426;28;20069;-63
2021/07/28 02:17:05;;;;;;;9.13;6.57;;;;;;;17.70;73.78;99352.34;4980389;28;20045;-63
2021/07/28 02:19:49;;;;;;;11.57;6.53;;;;;;;17.70;73.78;99354.97;4995260;28;20138;-63
2021/07/28 02:22:33;;;;;;;8.55;6.63;;;;;;;17.68;73.85;99339.28;4994872;28;20069;-64
2021/07/28 02:25:22;;;;;;;7.82;6.55;;;;;;;17.69;73.86;99353.22;4995290;28;20057;-62
2021/07/28 02:28:06;;;;;;;8.40;7.05;;;;;;;17.69;73.76;99358.47;4994835;28;20049;-63
2021/07/28 02:30:50;;;;;;;7.53;6.22;;;;;;;17.68;73.82;99355.00;4994682;28;20053;-63
2021/07/28 02:33:37;;;;;;;10.35;7.00;;;;;;;17.69;73.83;99355.84;4994875;28;20078;-63
2021/07/28 02:36:23;;;;;;;12.98;6.25;;;;;;;17.68;73.96;99354.13;4979826;28;20049;-63
2021/07/28 02:39:13;;;;;;;10.05;7.15;;;;;;;17.68;73.73;99354.13;4994645;28;20197;-63
2021/07/28 02:41:59;;;;;;;8.63;6.57;;;;;;;17.68;73.78;99355.00;4980139;28;20109;-63
2021/07/28 02:44:43;;;;;;;12.05;6.85;;;;;;;17.67;73.79;99350.66;4994461;28;20050;-63
2021/07/28 02:47:30;;;;;;;14.90;7.25;;;;;;;17.67;73.79;99341.97;4994468;28;20049;-63
2021/07/28 02:50:16;;;;;;;10.57;6.82;;;;;;;17.67;73.87;99347.19;4994580;28;20101;-63
2021/07/28 02:53:01;;;;;;;8.25;6.13;;;;;;;17.67;73.92;99344.59;4979901;28;20144;-62
2021/07/28 02:55:44;;;;;;;10.05;6.60;;;;;;;17.65;73.79;99332.38;4979690;28;20049;-62
2021/07/28 02:58:28;;;;;;;8.43;6.00;;;;;;;17.65;73.96;99326.25;4979493;28;20045;-61
2021/07/28 03:01:12;;;;;;;11.73;7.63;;;;;;;17.64;73.81;99328.03;4994410;28;20501;-62
2021/07/28 03:03:58;;;;;;;10.13;6.45;;;;;;;17.65;74.10;99334.13;4994747;28;20129;-61
2021/07/28 03:06:46;;;;;;;8.95;6.68;;;;;;;17.65;73.86;99336.75;4979824;28;20108;-62
2021/07/28 03:09:30;;;;;;;8.90;6.68;;;;;;;17.64;73.90;99333.28;4979840;28;20080;-61
2021/07/28 03:12:14;;;;;;;6.70;6.10;;;;;;;17.62;73.92;99337.69;4994507;28;20123;-61
2021/07/28 03:15:00;;;;;;;8.27;5.82;;;;;;;17.62;73.96;99340.31;4994525;28;20122;-61
2021/07/28 03:17:47;;;;;;;8.45;6.20;;;;;;;17.64;73.91;99335.88;4993716;28;20045;-61
2021/07/28 03:20:31;;;;;;;8.15;6.45;;;;;;;17.64;73.84;99335.00;4978961;28;20527;-61
2021/07/28 03:23:15;;;;;;;9.77;6.78;;;;;;;17.65;73.80;99331.50;4979745;28;20054;-61
2021/07/28 03:26:03;;;;;;;8.55;6.60;;;;;;;17.64;73.98;99324.53;4994334;28;20048;-62
2021/07/28 03:28:49;;;;;;;9.75;6.25;;;;;;;17.65;73.93;99313.16;4979673;28;20056;-61
2021/07/28 03:31:39;;;;;;;7.60;6.35;;;;;;;17.63;74.17;99315.81;4979270;28;20132;-62
2021/07/28 03:34:23;;;;;;;7.85;6.15;;;;;;;17.63;74.04;99304.47;4979300;28;20069;-61
2021/07/28 03:37:07;;;;;;;12.63;6.13;;;;;;;17.63;74.32;99304.47;4993745;28;20104;-63
2021/07/28 03:40:00;;;;;;;8.98;6.80;;;;;;;17.63;74.02;99313.22;4994235;28;20461;-63
2021/07/28 03:42:48;;;;;;;9.02;6.32;;;;;;;17.64;74.02;99319.28;4979801;28;20053;-63
2021/07/28 03:45:32;;;;;;;10.38;6.97;;;;;;;17.62;74.19;99314.09;4979273;28;20112;-63
2021/07/28 03:48:22;;;;;;;9.70;7.78;;;;;;;17.61;73.70;99325.47;4993518;28;20069;-63
2021/07/28 03:51:11;;;;;;;8.82;5.13;;;;;;;17.61;74.04;99325.47;4997818;28;20041;-63
2021/07/28 03:53:58;;;;;;;9.68;6.70;;;;;;;17.61;74.07;99320.25;4983134;28;20049;-62
2021/07/28 03:56:42;;;;;;;11.05;6.70;;;;;;;17.60;73.96;99326.38;4983030;28;20051;-63
2021/07/28 03:59:26;;;;;;;10.43;7.28;;;;;;;17.61;74.04;99327.22;4998055;28;20573;-63
2021/07/28 04:02:12;;;;;;;10.88;7.50;;;;;;;17.62;73.94;99328.94;4997607;28;20053;-63
2021/07/28 04:04:59;;;;;;;9.82;6.63;;;;;;;17.61;74.27;99328.09;4997459;28;20054;-63
2021/07/28 04:07:45;;;;;;;10.10;7.82;;;;;;;17.62;74.03;99327.19;4983042;28;20112;-61
2021/07/28 04:10:32;;;;;;;9.85;7.22;;;;;;;17.60;73.99;99321.13;4982923;28;20093;-62
2021/07/28 04:13:21;;;;;;;10.80;7.70;;;;;;;17.61;74.15;99325.47;4982550;28;20049;-63
2021/07/28 04:16:08;;;;;;;8.13;6.63;;;;;;;17.61;74.43;99329.84;4997240;28;20629;-63
2021/07/28 04:19:01;;;;;;;11.32;7.25;;;;;;;17.61;74.12;99325.47;4997421;28;20054;-63
2021/07/28 04:21:47;;;;;;;8.35;6.80;;;;;;;17.62;74.28;99323.69;4982576;28;20052;-63
2021/07/28 04:24:38;;;;;;;9.13;6.53;;;;;;;17.62;74.35;99321.97;4982447;28;20061;-63
2021/07/28 04:27:29;;;;;;;9.55;6.90;;;;;;;17.61;74.26;99332.47;4982603;28;20532;-63
2021/07/28 04:30:13;;;;;;;7.93;6.95;;;;;;;17.60;74.30;99334.22;4996999;28;20537;-63
2021/07/28 04:33:01;;;;;;;9.85;7.07;;;;;;;17.61;74.38;99335.09;4996949;28;20477;-63
2021/07/28 04:35:48;;;;;;;9.23;6.78;;;;;;;17.61;74.40;99332.47;4982523;28;20406;-63
2021/07/28 04:38:32;;;;;;;10.05;7.45;;;;;;;17.62;74.49;99336.81;4982532;28;20137;-63
2021/07/28 04:41:18;;;;;;;9.48;7.07;;;;;;;17.61;74.46;99328.09;4982157;28;20133;-63
2021/07/28 04:44:05;;;;;;;9.18;6.75;;;;;;;17.61;74.72;99328.09;4982333;28;20049;-62
2021/07/28 04:46:51;;;;;;;8.95;7.03;;;;;;;17.62;74.71;99329.81;4981999;28;20473;-62
2021/07/28 04:49:35;;;;;;;8.43;6.82;;;;;;;17.62;74.56;99336.81;4997137;28;20573;-62
2021/07/28 04:52:25;;;;;;;9.10;6.18;;;;;;;17.60;74.72;99334.22;4996580;28;20049;-62
2021/07/28 04:55:09;;;;;;;9.40;6.97;;;;;;;17.61;74.81;99324.59;4982186;28;20053;-63
2021/07/28 04:57:56;;;;;;;8.57;6.65;;;;;;;17.61;74.63;99333.34;4996621;28;20129;-63
2021/07/28 05:00:40;;;;;;;10.40;7.30;;;;;;;17.62;74.79;99337.69;4995997;28;20088;-63
2021/07/28 05:03:26;;;;;;;10.00;6.80;;;;;;;17.61;74.86;99338.56;4996542;28;20057;-64
2021/07/28 05:06:10;;;;;;;10.05;7.55;;;;;;;17.61;74.94;99338.56;4981774;28;20113;-63
2021/07/28 05:08:54;;;;;;;10.73;6.03;;;;;;;17.63;74.65;99342.03;4996768;28;20088;-63
2021/07/28 05:11:38;;;;;;;8.95;6.40;;;;;;;17.63;74.90;99349.00;4996404;28;20053;-63
2021/07/28 05:14:22;;;;;;;12.65;6.25;;;;;;;17.62;75.07;99358.63;4996092;28;20057;-63
2021/07/28 05:17:06;;;;;;;9.07;6.22;;;;;;;17.60;75.07;99360.44;4996180;28;20089;-63
2021/07/28 05:19:53;;;;;;;8.82;6.22;;;;;;;17.59;74.83;99355.25;4995948;28;20073;-63
2021/07/28 05:22:37;;;;;;;11.02;6.85;;;;;;;17.57;74.80;99364.91;4981439;28;20469;-62
2021/07/28 05:25:21;;;;;;;9.40;5.57;;;;;;;17.55;74.92;99364.06;4996050;28;20494;-62
2021/07/28 05:28:06;;;;;;;8.43;5.70;;;;;;;17.55;75.08;99364.91;4981491;28;20049;-61
2021/07/28 05:30:50;;;;;;;6.57;4.88;;;;;;;17.54;75.03;99362.34;4995789;28;20129;-61
2021/07/28 05:33:34;;;;;;;7.28;5.22;;;;;;;17.53;74.99;99364.09;4995844;28;20122;-61
2021/07/28 05:36:17;;;;;;;6.72;4.75;;;;;;;17.52;75.03;99364.97;4995680;28;20640;-62
2021/07/28 05:39:01;;;;;;;6.53;4.43;;;;;;;17.52;74.89;99359.75;4981462;28;20097;-62
2021/07/28 05:41:45;;;;;;;10.23;4.85;;;;;;;17.52;75.10;99359.75;4981403;28;20096;-61
2021/07/28 05:44:32;;;;;;;5.18;4.47;;;;;;;17.49;75.00;99355.44;4995866;28;20116;-61
2021/07/28 05:47:16;;;;;;;7.70;4.47;;;;;;;17.47;75.00;99359.00;4995728;28;20049;-63
2021/07/28 05:50:00;;;;;;;6.65;4.80;;;;;;;17.46;75.29;99360.75;4981165;28;20045;-63
2021/07/28 05:52:44;;;;;;;8.68;5.68;;;;;;;17.46;75.00;99359.91;4995970;28;20053;-63
2021/07/28 05:55:27;;;;;;;9.55;4.68;;;;;;;17.45;74.98;99353.78;4995736;28;20521;-63
2021/07/28 05:58:11;;;;;;;8.82;4.43;;;;;;;17.44;74.96;99365.16;4995781;28;20109;-63
2021/07/28 06:00:56;;;;;;;9.02;4.63;;;;;;;17.46;74.93;99365.13;4980805;28;20077;-63
2021/07/28 06:03:40;;;;;;;8.45;4.50;;;;;;;17.47;75.07;99356.38;4995059;28;20093;-63
2021/07/28 06:06:26;;;;;;;13.10;5.13;;;;;;;17.47;75.24;99357.22;4995615;28;20085;-63
2021/07/28 06:09:10;;;;;;;10.30;4.95;;;;;;;17.48;75.01;99365.97;4995008;28;20080;-63
2021/07/28 06:11:53;;;;;;;7.50;5.25;;;;;;;17.49;75.31;99368.53;4994104;28;20053;-63
2021/07/28 06:14:37;;;;;;;9.10;5.07;;;;;;;17.48;75.22;99368.59;4995141;28;20049;-63
2021/07/28 06:17:22;;;;;;;7.22;4.82;;;;;;;17.48;75.41;99366.81;4995087;28;20068;-63
2021/07/28 06:20:06;;;;;;;;;;;;;;;17.47;75.07;99366.88;4995880;28;20053;-63
2021/07/28 06:22:53;;;;;;;12.45;5.20;;;;;;;17.47;75.58;99362.47;4994638;28;20027;-63
2021/07/28 06:25:37;;;;;;;6.70;5.40;;;;;;;17.48;75.43;99364.19;4980617;28;20452;-63
2021/07/28 06:28:21;;;;;;;9.55;5.57;;;;;;;17.49;75.27;99370.31;4980439;28;20097;-63
2021/07/28 06:31:04;;;;;;;8.02;5.78;;;;;;;17.50;75.37;99369.41;4995202;28;20465;-63
2021/07/28 06:33:48;;;;;;;9.70;5.63;;;;;;;17.52;75.53;99375.44;4980376;28;20088;-63
2021/07/28 06:36:32;;;;;;;10.80;5.78;;;;;;;17.52;75.38;99372.84;4994654;28;20421;-63
2021/07/28 06:39:16;;;;;;;7.68;5.75;;;;;;;17.53;75.32;99377.19;4980156;28;20049;-63
2021/07/28 06:42:03;;;;;;;10.13;5.93;;;;;;;17.54;75.42;99378.91;4994496;28;20100;-63
2021/07/28 06:44:49;;;;;;;8.85;6.32;;;;;;;17.54;75.62;99381.53;4979955;28;20099;-63
2021/07/28 06:47:33;;;;;;;9.82;6.40;;;;;;;17.55;75.53;99383.25;4979690;28;20485;-63
2021/07/28 06:50:19;;;;;;;8.77;5.85;;;;;;;17.55;75.65;99392.88;4980220;28;20104;-63
2021/07/28 06:53:03;;;;;;;8.23;6.03;;;;;;;17.57;75.61;99399.78;4980006;28;20045;-63
2021/07/28 06:55:50;;;;;;;9.43;6.50;;;;;;;17.56;75.72;99402.47;4994456;28;20413;-63
2021/07/28 06:58:34;;;;;;;10.27;6.57;;;;;;;17.56;75.60;99398.06;4979863;28;20136;-63
2021/07/28 07:01:18;;;;;;;8.90;6.80;;;;;;;17.56;75.71;99403.31;4994363;28;20093;-63
2021/07/28 07:04:02;;;;;;;12.55;5.90;;;;;;;17.57;75.78;99402.41;4979126;28;20088;-63
2021/07/28 07:06:48;;;;;;;6.47;5.72;;;;;;;17.59;75.66;99398.00;4979643;28;20050;-64
2021/07/28 07:09:34;;;;;;;11.23;5.82;;;;;;;17.59;75.55;99403.25;4979588;28;20108;-63
2021/07/28 07:12:19;;;;;;;9.07;6.00;;;;;;;17.60;75.73;99397.13;4979595;28;20140;-63
2021/07/28 07:15:04;;;;;;;11.18;6.30;;;;;;;17.61;75.66;99405.81;4994483;28;20126;-63
2021/07/28 07:17:51;;;;;;;7.80;6.32;;;;;;;17.60;75.66;99398.84;4979730;28;20061;-63
2021/07/28 07:20:35;;;;;;;9.73;6.43;;;;;;;17.60;75.75;99401.47;4979719;28;20150;-63
2021/07/28 07:23:19;;;;;;;7.00;5.55;;;;;;;17.58;75.66;99404.16;4993913;28;20549;-63
2021/07/28 07:26:03;;;;;;;9.70;6.32;;;;;;;17.59;75.71;99402.41;4979404;28;20080;-62
2021/07/28 07:28:47;;;;;;;10.27;6.32;;;;;;;17.59;75.66;99408.50;4979277;28;20128;-62
2021/07/28 07:31:31;;;;;;;9.05;6.03;;;;;;;17.59;75.74;99402.41;4993809;28;20104;-62
2021/07/28 07:34:17;;;;;;;8.73;5.88;;;;;;;17.59;75.76;99405.88;4979061;28;20525;-61
2021/07/28 07:37:01;;;;;;;7.28;5.53;;;;;;;17.60;75.92;99399.72;4994093;28;20097;-62
2021/07/28 07:39:45;;;;;;;10.15;4.80;;;;;;;17.61;75.84;99403.19;4994098;28;20056;-62
2021/07/28 07:42:30;;;;;;;8.25;5.90;;;;;;;17.59;75.90;99398.00;4994024;28;20097;-62
2021/07/28 07:45:18;;;;;;;9.27;6.28;;;;;;;17.61;75.85;99397.97;4993959;28;20576;-63
2021/07/28 07:48:11;;;;;;;13.00;7.15;;;;;;;17.62;75.87;99383.97;4994083;28;20406;-63
2021/07/28 07:51:00;;;;;;;8.55;6.13;;;;;;;17.63;75.81;99388.31;4978725;28;20052;-63
2021/07/28 07:53:47;;;;;;;8.95;5.85;;;;;;;17.64;75.71;99395.28;4994200;28;20053;-64
2021/07/28 07:56:37;;;;;;;8.45;5.65;;;;;;;17.63;75.61;99383.94;4978927;28;20516;-63
2021/07/28 07:59:29;;;;;;;8.93;5.40;;;;;;;17.65;75.80;99384.78;4993592;28;20105;-63
2021/07/28 08:02:13;;;;;;;7.03;4.97;;;;;;;17.64;75.71;99383.06;4978571;28;20413;-63
2021/07/28 08:04:57;;;;;;;7.25;5.47;;;;;;;17.65;75.89;99392.63;4979113;28;20049;-63
2021/07/28 08:07:49;;;;;;;6.63;5.50;;;;;;;17.65;75.72;99384.78;4994043;28;20065;-63
2021/07/28 08:10:36;;;;;;;11.43;5.75;;;;;;;17.65;75.77;99397.00;4993884;28;20121;-63
2021/07/28 08:13:29;;;;;;;7.45;4.97;;;;;;;17.64;75.62;99385.69;4978763;28;20049;-63
2021/07/28 08:16:22;;;;;;;7.30;5.22;;;;;;;17.64;75.60;99390.91;4993114;28;20049;-63
2021/07/28 08:19:12;;;;;;;7.95;4.95;;;;;;;17.65;75.58;99395.25;4979270;28;20532;-64
2021/07/28 08:21:59;;;;;;;6.15;4.78;;;;;;;17.64;75.42;99385.69;4993595;28;20116;-63
2021/07/28 08:24:54;;;;;;;6.00;4.30;;;;;;;17.64;75.76;99398.78;4993618;28;20046;-63
2021/07/28 08:27:39;;;;;;;7.40;4.75;;;;;;;17.67;75.35;99396.97;4993403;28;20552;-64
2021/07/28 08:30:23;;;;;;;5.80;4.38;;;;;;;17.67;75.66;99396.97;4993487;28;20413;-63
2021/07/28 08:33:16;;;;;;;6.82;4.70;;;;;;;17.67;75.38;99396.97;4979160;28;20417;-63
2021/07/28 08:36:05;;;;;;;6.63;4.68;;;;;;;17.66;75.19;99398.72;4980510;28;20044;-63
2021/07/28 08:39:01;;;;;;;8.45;4.50;;;;;;;17.67;75.10;99396.97;4982585;28;20088;-64
2021/07/28 08:41:59;;;;;;;7.07;3.92;;;;;;;17.68;75.52;99382.94;4996831;28;20137;-63
2021/07/28 08:44:52;;;;;;;7.80;3.95;;;;;;;17.68;75.25;99381.22;4982279;28;20049;-63
2021/07/28 08:47:42;;;;;;;7.13;3.78;;;;;;;17.68;75.12;99386.44;4982363;28;20061;-63
2021/07/28 08:50:35;;;;;;;8.73;4.32;;;;;;;17.68;75.18;99383.84;4982426;28;20065;-63
2021/07/28 08:53:19;;;;;;;6.65;3.85;;;;;;;17.69;75.18;99384.69;4981670;28;20065;-63
2021/07/28 08:56:07;;;;;;;;;;;;;;;17.69;74.84;99382.94;4997257;28;20080;-63
2021/07/28 08:58:50;;;;;;;5.80;3.53;;;;;;;17.70;74.90;99378.53;4982068;28;19964;-62
2021/07/28 09:01:37;;;;;;;7.38;4.53;;;;;;;17.72;74.61;99382.00;4981866;28;20497;-63
2021/07/28 09:04:27;;;;;;;5.30;3.40;;;;;;;17.72;74.67;99382.88;4981824;28;20070;-63
2021/07/28 09:07:15;;;;;;;4.68;3.53;;;;;;;17.76;74.83;99383.66;4996418;28;20057;-63
2021/07/28 09:10:12;;;;;;;5.75;4.00;;;;;;;17.75;74.78;99387.16;4981791;28;20096;-63
2021/07/28 09:13:07;;;;;;;3.80;3.22;;;;;;;17.76;74.75;99394.97;4996632;28;20057;-63
2021/07/28 09:15:58;;;;;;;5.18;3.58;;;;;;;17.78;74.52;99392.34;4996151;28;20414;-63
2021/07/28 09:18:47;;;;;;;5.85;3.55;;;;;;;17.79;74.60;99388.81;4996105;28;20073;-61
2021/07/28 09:21:32;;;;;;;4.25;3.08;;;;;;;17.79;74.49;99384.44;4996195;28;20073;-63
2021/07/28 09:24:24;;;;;;;;;;;;;;;17.80;74.57;99390.53;4996629;28;20049;-64
2021/07/28 09:27:47;;;;;;;3.88;3.28;;;;;;;17.79;74.28;99392.28;4981442;28;19964;-63
2021/07/28 09:30:38;;;;;;;5.40;3.65;;;;;;;17.80;74.33;99391.41;4981288;28;20053;-63
2021/07/28 09:33:22;;;;;;;4.43;3.13;;;;;;;17.82;74.07;99399.25;4995818;28;20097;-63
2021/07/28 09:36:16;;;;;;;7.18;3.50;;;;;;;17.84;74.54;99404.44;4981106;28;20640;-63
2021/07/28 09:39:03;;;;;;;5.82;3.05;;;;;;;17.86;74.40;99398.25;4980972;28;20104;-64
2021/07/28 09:41:50;;;;;;;4.57;2.90;;;;;;;17.89;74.04;99398.16;4996072;28;20108;-63
2021/07/28 09:44:38;;;;;;;5.00;3.55;;;;;;;17.91;74.17;99405.97;4981557;28;20104;-63
2021/07/28 09:47:24;;;;;;;3.83;2.75;;;;;;;17.90;73.93;99402.53;4981067;28;20101;-63
2021/07/28 09:50:18;;;;;;;4.88;3.10;;;;;;;17.91;73.81;99396.38;4980688;28;20073;-63
2021/07/28 09:53:10;;;;;;;4.63;2.95;;;;;;;17.92;73.90;99391.97;4995768;28;20050;-63
2021/07/28 09:55:58;;;;;;;5.68;3.13;;;;;;;17.92;73.62;99416.44;4995366;28;20065;-63
2021/07/28 09:58:45;;;;;;;4.35;2.83;;;;;;;17.94;73.72;99404.19;4981112;28;20061;-62
2021/07/28 10:01:31;;;;;;;5.13;2.72;;;;;;;17.94;73.59;99404.19;4980701;28;20551;-63
2021/07/28 10:04:20;;;;;;;4.03;2.70;;;;;;;17.94;73.44;99398.94;4980176;28;20496;-63
2021/07/28 10:07:07;;;;;;;3.83;2.58;;;;;;;17.95;73.78;99395.41;4980375;28;20053;-63
2021/07/28 10:10:12;;;;;;;4.05;2.78;;;;;;;17.96;73.40;99405.00;4980730;28;20445;-63
2021/07/28 10:12:55;;;;;;;7.60;2.83;;;;;;;17.95;73.43;99405.91;4995180;28;20521;-63
2021/07/28 10:15:39;;;;;;;3.55;2.40;;;;;;;17.96;73.18;99399.75;4994971;28;20130;-63
2021/07/28 10:18:30;;;;;;;6.80;2.88;;;;;;;17.96;73.07;99407.63;4994901;28;20049;-63
2021/07/28 10:21:18;;;;;;;10.88;2.58;;;;;;;17.97;72.70;99418.97;4995378;28;20576;-61
2021/07/28 10:24:05;;;;;;;4.78;2.50;;;;;;;17.98;72.97;99418.09;4980351;28;20050;-62
2021/07/28 10:26:52;;;;;;;3.85;2.30;;;;;;;17.98;72.83;99414.63;4994945;28;20109;-61
2021/07/28 10:29:36;;;;;;;5.63;2.72;;;;;;;17.99;72.86;99403.22;4980343;28;20102;-62
2021/07/28 10:32:28;;;;;;;4.82;2.88;;;;;;;18.00;72.87;99407.56;4995248;28;20606;-62
2021/07/28 10:35:19;;;;;;;3.53;2.10;;;;;;;18.00;72.72;99408.44;4994508;28;20045;-61
2021/07/28 10:38:20;;;;;;;4.72;2.40;;;;;;;18.00;72.66;99404.94;4994317;28;20524;-62
2021/07/28 10:41:10;;;;;;;5.65;3.10;;;;;;;18.02;72.66;99401.41;4994433;28;20100;-63
2021/07/28 10:44:15;;;;;;;5.90;2.75;;;;;;;18.03;72.59;99415.34;4994583;28;20475;-62
2021/07/28 10:47:08;;;;;;;5.20;2.45;;;;;;;18.00;72.54;99416.28;4980210;28;20060;-64
2021/07/28 10:49:52;;;;;;;4.15;2.63;;;;;;;17.99;72.42;99416.31;4980049;28;20061;-62
2021/07/28 10:52:48;;;;;;;3.75;2.88;;;;;;;17.99;72.70;99405.84;4994146;28;20085;-61
2021/07/28 10:55:40;;;;;;;5.00;2.58;;;;;;;17.99;72.47;99409.34;4979601;28;20107;-62
2021/07/28 10:58:25;;;;;;;5.03;2.58;;;;;;;18.01;72.32;99399.66;4979121;28;20528;-62
2021/07/28 11:01:11;;;;;;;5.65;2.88;;;;;;;18.03;72.39;99397.00;4979598;28;20613;-62
2021/07/28 11:04:22;;;;;;;6.75;2.92;;;;;;;18.04;72.28;99406.59;4979422;28;20205;-61
2021/07/28 11:07:06;;;;;;;3.40;2.50;;;;;;;18.06;72.21;99387.28;4994408;28;20422;-61
2021/07/28 11:10:10;;;;;;;;;;;;;;;18.06;72.37;99397.78;4979537;28;20060;-61
2021/07/28 11:13:03;;;;;;;4.05;2.65;;;;;;;18.07;72.23;99403.91;4994511;28;20028;-62
2021/07/28 11:16:07;;;;;;;5.97;2.45;;;;;;;18.08;71.77;99403.84;4994421;28;20049;-61
2021/07/28 11:18:51;;;;;;;4.13;2.40;;;;;;;18.09;72.11;99404.72;4994297;28;20164;-62
2021/07/28 11:21:35;;;;;;;3.45;2.03;;;;;;;18.09;72.28;99402.09;4979062;28;20292;-61
2021/07/28 11:24:27;;;;;;;4.55;2.33;;;;;;;18.09;71.86;99402.09;4994163;28;20053;-63
2021/07/28 11:27:13;;;;;;;3.45;2.20;;;;;;;18.08;71.52;99411.72;4979087;28;20105;-63
2021/07/28 11:30:11;;;;;;;3.50;2.40;;;;;;;18.08;71.73;99416.94;4993816;28;20145;-62
2021/07/28 11:33:14;;;;;;;4.13;2.42;;;;;;;18.07;71.46;99411.75;4979443;28;20052;-63
2021/07/28 11:36:00;;;;;;;4.15;2.28;;;;;;;18.08;71.65;99409.09;4979720;28;20057;-63
2021/07/28 11:38:44;;;;;;;6.03;2.40;;;;;;;18.08;71.53;99421.34;4994057;28;20122;-63
2021/07/28 11:41:30;;;;;;;6.45;2.20;;;;;;;18.08;71.39;99427.44;4979434;28;20146;-63
2021/07/28 11:44:14;;;;;;;4.28;2.03;;;;;;;18.07;71.43;99423.09;4993619;28;20142;-63
2021/07/28 11:47:01;;;;;;;;;;;;;;;18.05;71.36;99427.53;4994005;28;20129;-63
2021/07/28 11:50:00;;;;;;;2.85;2.00;;;;;;;18.04;71.27;99423.19;4979588;28;20417;-61
2021/07/28 11:52:47;;;;;;;4.80;2.67;;;;;;;18.03;71.53;99424.09;4979518;28;20109;-63
2021/07/28 11:55:34;;;;;;;4.38;2.13;;;;;;;18.03;71.26;99426.72;4979292;28;20057;-64
2021/07/28 11:58:22;;;;;;;2.83;2.10;;;;;;;18.04;71.16;99417.94;4979487;28;20057;-64
2021/07/28 12:01:29;;;;;;;5.95;2.00;;;;;;;18.05;71.14;99427.53;4979016;28;20054;-62
2021/07/28 12:04:17;;;;;;;5.65;2.17;;;;;;;18.07;71.00;99423.09;4979139;28;20065;-63
2021/07/28 12:07:22;;;;;;;4.95;1.92;;;;;;;18.07;70.95;99425.72;4979404;28;20059;-63
2021/07/28 12:10:06;;;;;;;3.17;2.15;;;;;;;18.08;70.98;99439.72;4979840;28;20516;-63
2021/07/28 12:12:56;;;;;;;4.60;2.17;;;;;;;18.09;71.02;99428.31;4997242;28;20414;-63
2021/07/28 12:16:03;;;;;;;6.40;2.20;;;;;;;18.10;70.66;99424.81;4982573;28;20077;-63
2021/07/28 12:18:52;;;;;;;6.95;2.40;;;;;;;18.09;70.55;99444.91;4997412;28;20097;-63
2021/07/28 12:21:53;;;;;;;6.10;2.17;;;;;;;18.09;70.59;99438.81;4997467;28;20061;-61
2021/07/28 12:24:41;;;;;;;2.35;1.90;;;;;;;18.08;70.46;99432.69;4997124;28;20185;-62
2021/07/28 12:27:25;;;;;;;2.97;2.20;;;;;;;18.08;70.39;99437.94;4997474;28;20561;-63
2021/07/28 12:30:20;;;;;;;3.47;2.28;;;;;;;18.09;70.39;99433.56;4997421;28;20057;-63
2021/07/28 12:33:23;;;;;;;4.13;2.33;;;;;;;18.10;70.42;99435.28;4997133;28;20053;-63
2021/07/28 12:36:09;;;;;;;4.03;2.03;;;;;;;18.07;70.32;99436.22;4982177;28;20049;-63
2021/07/28 12:38:59;;;;;;;4.20;2.00;;;;;;;18.10;70.33;99441.38;4982319;28;20040;-62
2021/07/28 12:41:45;;;;;;;3.78;2.30;;;;;;;18.10;70.05;99433.50;4982484;28;20552;-62
2021/07/28 12:44:34;;;;;;;4.22;2.38;;;;;;;18.13;70.29;99440.47;4997027;28;20110;-63
2021/07/28 12:47:18;;;;;;;7.78;2.35;;;;;;;18.15;70.21;99450.91;4996432;28;20549;-63
2021/07/28 12:50:02;;;;;;;5.30;2.25;;;;;;;18.15;70.00;99449.13;4996620;28;20122;-63
2021/07/28 12:52:49;;;;;;;3.53;2.05;;;;;;;18.16;69.95;99447.38;4982230;28;20413;-63
2021/07/28 12:55:35;;;;;;;2.97;1.95;;;;;;;18.17;69.99;99442.09;4996420;28;20528;-63
2021/07/28 12:58:20;;;;;;;4.57;2.22;;;;;;;18.19;69.89;99442.06;4996940;28;20061;-63
2021/07/28 13:01:04;;;;;;;6.10;2.50;;;;;;;18.20;70.04;99438.53;4996313;28;20593;-63
2021/07/28 13:03:54;;;;;;;;;;;;;;;18.21;69.92;99443.75;4982074;28;20108;-63
2021/07/28 13:06:45;;;;;;;4.72;2.45;;;;;;;18.22;69.96;99442.84;4996779;28;19924;-63
2021/07/28 13:09:32;;;;;;;5.80;2.17;;;;;;;18.23;69.99;99452.44;4981903;28;20130;-63
2021/07/28 13:12:16;;;;;;;4.60;1.85;;;;;;;18.24;69.83;99437.53;4996336;28;20524;-61